sensor_id;sensor_type;location;lat;lon;timestamp;temperature;humidity
65876;HTU21D;52657;51.128;5.938;2023-07-09T00:01:18;29.00;50.28
65876;HTU21D;52657;51.128;5.938;2023-07-09T00:03:47;29.00;50.30
65876;HTU21D;52657;51.128;5.938;2023-07-09T00:06:18;28.95;50.34
65876;HTU21D;52657;51.128;5.938;2023-07-09T00:08:45;28.91;50.57
65876;HTU21D;52657;51.128;5.938;2023-07-09T00:11:14;28.84;50.88
65876;HTU21D;52657;51.128;5.938;2023-07-09T00:13:40;28.77;51.02
65876;HTU21D;52657;51.128;5.938;2023-07-09T00:16:21;28.74;51.20
65876;HTU21D;52657;51.128;5.938;2023-07-09T00:18:51;28.68;51.23
65876;HTU21D;52657;51.128;5.938;2023-07-09T00:21:19;28.65;51.11
65876;HTU21D;52657;51.128;5.938;2023-07-09T00:23:46;28.64;51.00
65876;HTU21D;52657;51.128;5.938;2023-07-09T00:26:15;28.63;50.98
65876;HTU21D;52657;51.128;5.938;2023-07-09T00:28:59;28.61;51.14
65876;HTU21D;52657;51.128;5.938;2023-07-09T00:31:39;28.55;51.21
65876;HTU21D;52657;51.128;5.938;2023-07-09T00:34:10;28.54;51.16
65876;HTU21D;52657;51.128;5.938;2023-07-09T00:36:43;28.52;51.10
65876;HTU21D;52657;51.128;5.938;2023-07-09T00:39:19;28.48;51.35
65876;HTU21D;52657;51.128;5.938;2023-07-09T00:41:45;28.40;51.53
65876;HTU21D;52657;51.128;5.938;2023-07-09T00:44:31;28.35;51.68
65876;HTU21D;52657;51.128;5.938;2023-07-09T00:49:34;28.29;52.06
65876;HTU21D;52657;51.128;5.938;2023-07-09T00:52:18;28.24;52.19
65876;HTU21D;52657;51.128;5.938;2023-07-09T00:54:46;28.19;52.21
65876;HTU21D;52657;51.128;5.938;2023-07-09T00:57:20;28.18;52.14
65876;HTU21D;52657;51.128;5.938;2023-07-09T00:59:52;28.13;52.23
65876;HTU21D;52657;51.128;5.938;2023-07-09T01:02:21;28.06;52.41
65876;HTU21D;52657;51.128;5.938;2023-07-09T01:04:58;28.00;52.65
65876;HTU21D;52657;51.128;5.938;2023-07-09T01:07:27;27.95;52.88
65876;HTU21D;52657;51.128;5.938;2023-07-09T01:09:55;27.90;53.04
65876;HTU21D;52657;51.128;5.938;2023-07-09T01:12:22;27.87;53.14
65876;HTU21D;52657;51.128;5.938;2023-07-09T01:14:53;27.82;53.05
65876;HTU21D;52657;51.128;5.938;2023-07-09T01:17:27;27.76;53.26
65876;HTU21D;52657;51.128;5.938;2023-07-09T01:19:55;27.67;53.49
65876;HTU21D;52657;51.128;5.938;2023-07-09T01:22:29;27.61;53.71
65876;HTU21D;52657;51.128;5.938;2023-07-09T01:27:34;27.46;54.13
65876;HTU21D;52657;51.128;5.938;2023-07-09T01:30:06;27.42;54.30
65876;HTU21D;52657;51.128;5.938;2023-07-09T01:32:33;27.36;54.51
65876;HTU21D;52657;51.128;5.938;2023-07-09T01:35:01;27.31;54.66
65876;HTU21D;52657;51.128;5.938;2023-07-09T01:37:32;27.27;54.75
65876;HTU21D;52657;51.128;5.938;2023-07-09T01:39:58;27.23;54.86
65876;HTU21D;52657;51.128;5.938;2023-07-09T01:42:26;27.16;54.96
65876;HTU21D;52657;51.128;5.938;2023-07-09T01:44:54;27.10;55.10
65876;HTU21D;52657;51.128;5.938;2023-07-09T01:47:21;27.06;55.23
65876;HTU21D;52657;51.128;5.938;2023-07-09T01:49:50;27.01;55.30
65876;HTU21D;52657;51.128;5.938;2023-07-09T01:52:18;26.99;55.41
65876;HTU21D;52657;51.128;5.938;2023-07-09T01:54:45;26.93;55.52
65876;HTU21D;52657;51.128;5.938;2023-07-09T01:57:17;26.89;55.54
65876;HTU21D;52657;51.128;5.938;2023-07-09T01:59:45;26.85;55.69
65876;HTU21D;52657;51.128;5.938;2023-07-09T02:02:11;26.82;55.74
65876;HTU21D;52657;51.128;5.938;2023-07-09T02:04:52;26.83;55.87
65876;HTU21D;52657;51.128;5.938;2023-07-09T02:07:20;26.79;55.78
65876;HTU21D;52657;51.128;5.938;2023-07-09T02:09:46;26.75;55.84
65876;HTU21D;52657;51.128;5.938;2023-07-09T02:12:18;26.73;55.94
65876;HTU21D;52657;51.128;5.938;2023-07-09T02:14:46;26.71;56.03
65876;HTU21D;52657;51.128;5.938;2023-07-09T02:17:13;26.69;56.14
65876;HTU21D;52657;51.128;5.938;2023-07-09T02:19:40;26.69;56.10
65876;HTU21D;52657;51.128;5.938;2023-07-09T02:22:07;26.68;56.04
65876;HTU21D;52657;51.128;5.938;2023-07-09T02:24:35;26.68;56.01
65876;HTU21D;52657;51.128;5.938;2023-07-09T02:27:03;26.65;56.18
65876;HTU21D;52657;51.128;5.938;2023-07-09T02:29:30;26.62;56.22
65876;HTU21D;52657;51.128;5.938;2023-07-09T02:32:01;26.61;56.19
65876;HTU21D;52657;51.128;5.938;2023-07-09T02:34:28;26.58;56.24
65876;HTU21D;52657;51.128;5.938;2023-07-09T02:36:56;26.60;56.26
65876;HTU21D;52657;51.128;5.938;2023-07-09T02:39:25;26.57;56.29
65876;HTU21D;52657;51.128;5.938;2023-07-09T02:41:51;26.60;56.13
65876;HTU21D;52657;51.128;5.938;2023-07-09T02:44:17;26.63;55.97
65876;HTU21D;52657;51.128;5.938;2023-07-09T02:46:43;26.60;55.98
65876;HTU21D;52657;51.128;5.938;2023-07-09T02:49:11;26.61;55.86
65876;HTU21D;52657;51.128;5.938;2023-07-09T02:51:37;26.61;55.78
65876;HTU21D;52657;51.128;5.938;2023-07-09T02:54:03;26.57;55.88
65876;HTU21D;52657;51.128;5.938;2023-07-09T02:56:29;26.51;56.16
65876;HTU21D;52657;51.128;5.938;2023-07-09T02:58:55;26.50;56.16
65876;HTU21D;52657;51.128;5.938;2023-07-09T03:01:22;26.48;56.21
65876;HTU21D;52657;51.128;5.938;2023-07-09T03:03:51;26.45;56.33
65876;HTU21D;52657;51.128;5.938;2023-07-09T03:06:23;26.43;56.23
65876;HTU21D;52657;51.128;5.938;2023-07-09T03:08:49;26.43;56.16
65876;HTU21D;52657;51.128;5.938;2023-07-09T03:11:16;26.45;55.99
65876;HTU21D;52657;51.128;5.938;2023-07-09T03:13:42;26.40;56.15
65876;HTU21D;52657;51.128;5.938;2023-07-09T03:16:09;26.35;56.26
65876;HTU21D;52657;51.128;5.938;2023-07-09T03:18:34;26.30;56.47
65876;HTU21D;52657;51.128;5.938;2023-07-09T03:21:00;26.25;56.59
65876;HTU21D;52657;51.128;5.938;2023-07-09T03:23:27;26.23;56.62
65876;HTU21D;52657;51.128;5.938;2023-07-09T03:25:54;26.22;56.73
65876;HTU21D;52657;51.128;5.938;2023-07-09T03:28:20;26.19;56.74
65876;HTU21D;52657;51.128;5.938;2023-07-09T03:31:02;26.20;56.73
65876;HTU21D;52657;51.128;5.938;2023-07-09T03:33:28;26.15;56.84
65876;HTU21D;52657;51.128;5.938;2023-07-09T03:35:54;26.16;56.82
65876;HTU21D;52657;51.128;5.938;2023-07-09T03:38:21;26.15;56.74
65876;HTU21D;52657;51.128;5.938;2023-07-09T03:40:53;26.15;56.61
65876;HTU21D;52657;51.128;5.938;2023-07-09T03:43:20;26.11;56.59
65876;HTU21D;52657;51.128;5.938;2023-07-09T03:45:49;26.08;56.74
65876;HTU21D;52657;51.128;5.938;2023-07-09T03:48:18;26.07;56.87
65876;HTU21D;52657;51.128;5.938;2023-07-09T03:50:48;26.04;56.89
65876;HTU21D;52657;51.128;5.938;2023-07-09T03:53:16;26.02;56.87
65876;HTU21D;52657;51.128;5.938;2023-07-09T03:55:46;26.01;56.97
65876;HTU21D;52657;51.128;5.938;2023-07-09T03:58:12;25.96;57.20
65876;HTU21D;52657;51.128;5.938;2023-07-09T04:00:38;25.94;57.33
65876;HTU21D;52657;51.128;5.938;2023-07-09T04:03:04;25.95;57.26
65876;HTU21D;52657;51.128;5.938;2023-07-09T04:05:30;25.94;57.33
65876;HTU21D;52657;51.128;5.938;2023-07-09T04:07:55;25.97;57.50
65876;HTU21D;52657;51.128;5.938;2023-07-09T04:10:21;26.06;57.22
65876;HTU21D;52657;51.128;5.938;2023-07-09T04:12:47;26.18;57.00
65876;HTU21D;52657;51.128;5.938;2023-07-09T04:15:18;26.35;56.66
65876;HTU21D;52657;51.128;5.938;2023-07-09T04:17:44;26.52;56.35
65876;HTU21D;52657;51.128;5.938;2023-07-09T04:20:10;26.69;55.65
65876;HTU21D;52657;51.128;5.938;2023-07-09T04:22:37;26.82;55.16
65876;HTU21D;52657;51.128;5.938;2023-07-09T04:25:04;26.98;54.60
65876;HTU21D;52657;51.128;5.938;2023-07-09T04:27:31;27.09;54.10
65876;HTU21D;52657;51.128;5.938;2023-07-09T04:30:00;27.13;53.87
65876;HTU21D;52657;51.128;5.938;2023-07-09T04:32:26;27.21;53.81
65876;HTU21D;52657;51.128;5.938;2023-07-09T04:34:51;27.26;53.58
65876;HTU21D;52657;51.128;5.938;2023-07-09T04:37:20;27.37;53.47
65876;HTU21D;52657;51.128;5.938;2023-07-09T04:39:45;27.49;53.46
65876;HTU21D;52657;51.128;5.938;2023-07-09T04:42:15;27.64;52.79
65876;HTU21D;52657;51.128;5.938;2023-07-09T04:44:41;27.72;52.24
65876;HTU21D;52657;51.128;5.938;2023-07-09T04:47:07;27.83;52.11
65876;HTU21D;52657;51.128;5.938;2023-07-09T04:49:33;27.99;51.69
65876;HTU21D;52657;51.128;5.938;2023-07-09T04:52:00;28.13;51.34
65876;HTU21D;52657;51.128;5.938;2023-07-09T04:54:26;28.31;50.86
65876;HTU21D;52657;51.128;5.938;2023-07-09T04:56:52;28.52;50.43
65876;HTU21D;52657;51.128;5.938;2023-07-09T04:59:19;28.75;50.01
65876;HTU21D;52657;51.128;5.938;2023-07-09T05:01:45;28.98;49.31
65876;HTU21D;52657;51.128;5.938;2023-07-09T05:04:11;29.09;48.75
65876;HTU21D;52657;51.128;5.938;2023-07-09T05:06:37;29.16;48.51
65876;HTU21D;52657;51.128;5.938;2023-07-09T05:09:04;29.26;48.05
65876;HTU21D;52657;51.128;5.938;2023-07-09T05:11:34;29.19;47.46
65876;HTU21D;52657;51.128;5.938;2023-07-09T05:14:00;28.97;47.97
65876;HTU21D;52657;51.128;5.938;2023-07-09T05:16:26;28.69;48.76
65876;HTU21D;52657;51.128;5.938;2023-07-09T05:18:52;28.44;49.51
65876;HTU21D;52657;51.128;5.938;2023-07-09T05:21:17;28.23;50.28
65876;HTU21D;52657;51.128;5.938;2023-07-09T05:23:43;28.04;50.59
65876;HTU21D;52657;51.128;5.938;2023-07-09T05:26:09;27.90;51.10
65876;HTU21D;52657;51.128;5.938;2023-07-09T05:28:35;27.78;51.64
65876;HTU21D;52657;51.128;5.938;2023-07-09T05:31:01;27.70;51.92
65876;HTU21D;52657;51.128;5.938;2023-07-09T05:33:27;27.64;52.11
65876;HTU21D;52657;51.128;5.938;2023-07-09T05:35:52;27.59;52.49
65876;HTU21D;52657;51.128;5.938;2023-07-09T05:38:18;27.57;52.57
65876;HTU21D;52657;51.128;5.938;2023-07-09T05:40:44;27.56;52.66
65876;HTU21D;52657;51.128;5.938;2023-07-09T05:43:10;27.59;52.65
65876;HTU21D;52657;51.128;5.938;2023-07-09T05:45:39;27.65;52.57
65876;HTU21D;52657;51.128;5.938;2023-07-09T05:48:05;27.71;52.49
65876;HTU21D;52657;51.128;5.938;2023-07-09T05:50:34;27.76;52.23
65876;HTU21D;52657;51.128;5.938;2023-07-09T05:53:00;27.84;52.00
65876;HTU21D;52657;51.128;5.938;2023-07-09T05:55:26;27.95;51.91
65876;HTU21D;52657;51.128;5.938;2023-07-09T05:57:52;28.28;51.60
65876;HTU21D;52657;51.128;5.938;2023-07-09T06:00:18;28.76;50.40
65876;HTU21D;52657;51.128;5.938;2023-07-09T06:02:44;29.27;49.08
65876;HTU21D;52657;51.128;5.938;2023-07-09T06:05:10;29.72;47.95
65876;HTU21D;52657;51.128;5.938;2023-07-09T06:07:37;30.17;46.77
65876;HTU21D;52657;51.128;5.938;2023-07-09T06:10:06;30.57;45.70
65876;HTU21D;52657;51.128;5.938;2023-07-09T06:12:33;30.97;44.63
65876;HTU21D;52657;51.128;5.938;2023-07-09T06:14:59;31.29;44.00
65876;HTU21D;52657;51.128;5.938;2023-07-09T06:17:25;31.63;43.69
65876;HTU21D;52657;51.128;5.938;2023-07-09T06:19:51;31.92;42.88
65876;HTU21D;52657;51.128;5.938;2023-07-09T06:22:16;32.24;42.34
65876;HTU21D;52657;51.128;5.938;2023-07-09T06:24:42;32.48;41.78
65876;HTU21D;52657;51.128;5.938;2023-07-09T06:27:09;32.69;41.33
65876;HTU21D;52657;51.128;5.938;2023-07-09T06:29:35;32.96;40.61
65876;HTU21D;52657;51.128;5.938;2023-07-09T06:32:00;32.99;40.61
65876;HTU21D;52657;51.128;5.938;2023-07-09T06:34:26;33.13;40.40
65876;HTU21D;52657;51.128;5.938;2023-07-09T06:36:52;33.37;39.62
65876;HTU21D;52657;51.128;5.938;2023-07-09T06:39:18;33.48;39.27
65876;HTU21D;52657;51.128;5.938;2023-07-09T06:41:45;33.62;38.86
65876;HTU21D;52657;51.128;5.938;2023-07-09T06:44:30;33.78;38.45
65876;HTU21D;52657;51.128;5.938;2023-07-09T06:46:56;33.89;38.02
65876;HTU21D;52657;51.128;5.938;2023-07-09T06:49:29;34.01;37.66
65876;HTU21D;52657;51.128;5.938;2023-07-09T06:51:55;34.18;37.57
65876;HTU21D;52657;51.128;5.938;2023-07-09T06:54:20;34.36;37.53
65876;HTU21D;52657;51.128;5.938;2023-07-09T06:56:46;34.45;37.43
65876;HTU21D;52657;51.128;5.938;2023-07-09T06:59:12;34.59;36.78
65876;HTU21D;52657;51.128;5.938;2023-07-09T07:01:38;34.76;36.11
65876;HTU21D;52657;51.128;5.938;2023-07-09T07:04:04;34.92;35.60
65876;HTU21D;52657;51.128;5.938;2023-07-09T07:06:29;35.01;35.37
65876;HTU21D;52657;51.128;5.938;2023-07-09T07:08:56;35.16;35.24
65876;HTU21D;52657;51.128;5.938;2023-07-09T07:11:22;35.33;34.93
65876;HTU21D;52657;51.128;5.938;2023-07-09T07:13:48;35.47;34.91
65876;HTU21D;52657;51.128;5.938;2023-07-09T07:16:16;35.55;34.64
65876;HTU21D;52657;51.128;5.938;2023-07-09T07:18:42;35.68;34.64
65876;HTU21D;52657;51.128;5.938;2023-07-09T07:21:08;35.87;34.46
65876;HTU21D;52657;51.128;5.938;2023-07-09T07:23:34;36.16;33.92
65876;HTU21D;52657;51.128;5.938;2023-07-09T07:25:59;36.40;33.14
65876;HTU21D;52657;51.128;5.938;2023-07-09T07:28:25;36.68;32.93
65876;HTU21D;52657;51.128;5.938;2023-07-09T07:31:07;37.03;32.16
65876;HTU21D;52657;51.128;5.938;2023-07-09T07:33:34;37.27;31.98
65876;HTU21D;52657;51.128;5.938;2023-07-09T07:35:59;37.49;31.76
65876;HTU21D;52657;51.128;5.938;2023-07-09T07:38:25;37.57;31.38
65876;HTU21D;52657;51.128;5.938;2023-07-09T07:40:51;37.70;30.96
65876;HTU21D;52657;51.128;5.938;2023-07-09T07:43:17;37.89;30.48
65876;HTU21D;52657;51.128;5.938;2023-07-09T07:45:43;38.05;30.03
65876;HTU21D;52657;51.128;5.938;2023-07-09T07:48:10;38.11;30.32
65876;HTU21D;52657;51.128;5.938;2023-07-09T07:50:36;38.22;30.15
65876;HTU21D;52657;51.128;5.938;2023-07-09T07:53:04;38.40;29.68
65876;HTU21D;52657;51.128;5.938;2023-07-09T07:55:29;38.51;29.68
65876;HTU21D;52657;51.128;5.938;2023-07-09T07:57:55;38.63;29.25
65876;HTU21D;52657;51.128;5.938;2023-07-09T08:00:23;38.66;28.83
65876;HTU21D;52657;51.128;5.938;2023-07-09T08:02:49;38.71;28.74
65876;HTU21D;52657;51.128;5.938;2023-07-09T08:05:14;38.81;28.82
65876;HTU21D;52657;51.128;5.938;2023-07-09T08:07:40;38.83;28.27
65876;HTU21D;52657;51.128;5.938;2023-07-09T08:10:06;38.86;28.46
65876;HTU21D;52657;51.128;5.938;2023-07-09T08:12:32;38.96;28.58
65876;HTU21D;52657;51.128;5.938;2023-07-09T08:14:58;39.21;28.23
65876;HTU21D;52657;51.128;5.938;2023-07-09T08:17:24;39.35;28.10
65876;HTU21D;52657;51.128;5.938;2023-07-09T08:19:53;39.50;27.72
65876;HTU21D;52657;51.128;5.938;2023-07-09T08:22:20;39.59;27.27
65876;HTU21D;52657;51.128;5.938;2023-07-09T08:24:46;39.62;27.15
65876;HTU21D;52657;51.128;5.938;2023-07-09T08:27:12;39.66;27.49
65876;HTU21D;52657;51.128;5.938;2023-07-09T08:29:38;39.70;27.19
65876;HTU21D;52657;51.128;5.938;2023-07-09T08:32:06;39.77;26.89
65876;HTU21D;52657;51.128;5.938;2023-07-09T08:34:31;39.71;26.47
65876;HTU21D;52657;51.128;5.938;2023-07-09T08:37:01;39.54;26.41
65876;HTU21D;52657;51.128;5.938;2023-07-09T08:39:27;39.37;26.30
65876;HTU21D;52657;51.128;5.938;2023-07-09T08:42:04;39.26;26.71
65876;HTU21D;52657;51.128;5.938;2023-07-09T08:45:03;39.38;26.55
65876;HTU21D;52657;51.128;5.938;2023-07-09T08:50:43;39.44;25.88
65876;HTU21D;52657;51.128;5.938;2023-07-09T08:53:19;39.45;26.08
65876;HTU21D;52657;51.128;5.938;2023-07-09T08:55:50;39.50;25.93
65876;HTU21D;52657;51.128;5.938;2023-07-09T08:58:29;39.43;25.60
65876;HTU21D;52657;51.128;5.938;2023-07-09T09:00:59;39.41;25.92
65876;HTU21D;52657;51.128;5.938;2023-07-09T09:03:57;39.50;25.68
65876;HTU21D;52657;51.128;5.938;2023-07-09T09:06:30;39.53;25.78
65876;HTU21D;52657;51.128;5.938;2023-07-09T09:09:28;39.63;25.42
65876;HTU21D;52657;51.128;5.938;2023-07-09T09:14:36;39.97;24.88
65876;HTU21D;52657;51.128;5.938;2023-07-09T09:17:15;40.12;24.72
65876;HTU21D;52657;51.128;5.938;2023-07-09T09:20:03;40.24;24.12
65876;HTU21D;52657;51.128;5.938;2023-07-09T09:22:36;40.22;24.12
65876;HTU21D;52657;51.128;5.938;2023-07-09T09:27:37;40.07;24.75
65876;HTU21D;52657;51.128;5.938;2023-07-09T09:30:04;40.16;24.43
65876;HTU21D;52657;51.128;5.938;2023-07-09T09:32:43;40.27;24.75
65876;HTU21D;52657;51.128;5.938;2023-07-09T09:35:16;40.41;23.92
65876;HTU21D;52657;51.128;5.938;2023-07-09T09:37:52;40.57;23.51
65876;HTU21D;52657;51.128;5.938;2023-07-09T09:40:20;40.72;23.18
65876;HTU21D;52657;51.128;5.938;2023-07-09T09:42:50;40.82;23.09
65876;HTU21D;52657;51.128;5.938;2023-07-09T09:45:19;40.85;22.78
65876;HTU21D;52657;51.128;5.938;2023-07-09T09:47:47;40.80;22.84
65876;HTU21D;52657;51.128;5.938;2023-07-09T09:50:19;40.81;22.90
65876;HTU21D;52657;51.128;5.938;2023-07-09T09:52:47;40.93;23.01
65876;HTU21D;52657;51.128;5.938;2023-07-09T09:55:20;41.15;22.36
65876;HTU21D;52657;51.128;5.938;2023-07-09T09:57:53;41.19;21.70
65876;HTU21D;52657;51.128;5.938;2023-07-09T10:00:23;41.09;21.77
65876;HTU21D;52657;51.128;5.938;2023-07-09T10:02:50;40.99;22.24
65876;HTU21D;52657;51.128;5.938;2023-07-09T10:05:31;41.16;22.00
65876;HTU21D;52657;51.128;5.938;2023-07-09T10:08:05;41.40;21.49
65876;HTU21D;52657;51.128;5.938;2023-07-09T10:10:33;41.49;21.13
65876;HTU21D;52657;51.128;5.938;2023-07-09T10:13:10;41.61;21.08
65876;HTU21D;52657;51.128;5.938;2023-07-09T10:16:00;41.50;21.57
65876;HTU21D;52657;51.128;5.938;2023-07-09T10:19:08;41.39;22.43
65876;HTU21D;52657;51.128;5.938;2023-07-09T10:21:47;41.47;22.63
65876;HTU21D;52657;51.128;5.938;2023-07-09T10:27:21;41.66;22.69
65876;HTU21D;52657;51.128;5.938;2023-07-09T10:33:07;41.62;22.02
65876;HTU21D;52657;51.128;5.938;2023-07-09T10:41:41;41.26;22.49
65876;HTU21D;52657;51.128;5.938;2023-07-09T10:44:21;41.30;22.53
65876;HTU21D;52657;51.128;5.938;2023-07-09T10:46:53;41.26;22.31
65876;HTU21D;52657;51.128;5.938;2023-07-09T10:49:21;41.21;22.05
65876;HTU21D;52657;51.128;5.938;2023-07-09T10:52:06;41.26;21.91
65876;HTU21D;52657;51.128;5.938;2023-07-09T11:00:22;41.33;21.73
65876;HTU21D;52657;51.128;5.938;2023-07-09T11:02:58;41.45;22.08
65876;HTU21D;52657;51.128;5.938;2023-07-09T11:05:25;41.63;22.18
65876;HTU21D;52657;51.128;5.938;2023-07-09T11:08:04;41.64;22.30
65876;HTU21D;52657;51.128;5.938;2023-07-09T11:10:46;41.65;21.79
65876;HTU21D;52657;51.128;5.938;2023-07-09T11:13:30;41.59;22.17
65876;HTU21D;52657;51.128;5.938;2023-07-09T11:16:00;41.57;22.04
65876;HTU21D;52657;51.128;5.938;2023-07-09T11:18:33;41.46;21.43
65876;HTU21D;52657;51.128;5.938;2023-07-09T11:21:14;41.55;20.49
65876;HTU21D;52657;51.128;5.938;2023-07-09T11:28:53;41.57;20.21
65876;HTU21D;52657;51.128;5.938;2023-07-09T11:31:33;41.61;20.23
65876;HTU21D;52657;51.128;5.938;2023-07-09T11:34:09;41.75;20.45
65876;HTU21D;52657;51.128;5.938;2023-07-09T11:39:28;42.05;21.11
65876;HTU21D;52657;51.128;5.938;2023-07-09T11:41:55;41.93;21.25
65876;HTU21D;52657;51.128;5.938;2023-07-09T11:44:27;41.71;21.57
65876;HTU21D;52657;51.128;5.938;2023-07-09T11:47:22;41.62;21.66
65876;HTU21D;52657;51.128;5.938;2023-07-09T11:52:31;41.05;22.21
65876;HTU21D;52657;51.128;5.938;2023-07-09T11:58:00;40.99;22.92
65876;HTU21D;52657;51.128;5.938;2023-07-09T12:00:36;41.13;22.31
65876;HTU21D;52657;51.128;5.938;2023-07-09T12:03:02;41.28;22.05
65876;HTU21D;52657;51.128;5.938;2023-07-09T12:05:29;41.47;21.49
65876;HTU21D;52657;51.128;5.938;2023-07-09T12:07:58;41.63;21.18
65876;HTU21D;52657;51.128;5.938;2023-07-09T12:10:27;41.60;21.45
65876;HTU21D;52657;51.128;5.938;2023-07-09T12:12:59;41.55;21.43
65876;HTU21D;52657;51.128;5.938;2023-07-09T12:15:27;41.60;21.29
65876;HTU21D;52657;51.128;5.938;2023-07-09T12:18:00;41.62;20.80
65876;HTU21D;52657;51.128;5.938;2023-07-09T12:20:31;41.59;20.37
65876;HTU21D;52657;51.128;5.938;2023-07-09T12:22:57;41.67;19.89
65876;HTU21D;52657;51.128;5.938;2023-07-09T12:25:27;41.59;19.03
65876;HTU21D;52657;51.128;5.938;2023-07-09T12:27:54;41.34;18.73
65876;HTU21D;52657;51.128;5.938;2023-07-09T12:30:20;41.19;18.68
65876;HTU21D;52657;51.128;5.938;2023-07-09T12:32:48;41.24;19.38
65876;HTU21D;52657;51.128;5.938;2023-07-09T12:35:23;41.24;20.35
65876;HTU21D;52657;51.128;5.938;2023-07-09T12:37:51;41.14;21.05
65876;HTU21D;52657;51.128;5.938;2023-07-09T12:40:23;41.14;21.43
65876;HTU21D;52657;51.128;5.938;2023-07-09T12:42:54;41.12;21.67
65876;HTU21D;52657;51.128;5.938;2023-07-09T12:45:24;41.04;21.93
65876;HTU21D;52657;51.128;5.938;2023-07-09T12:47:50;40.92;22.29
65876;HTU21D;52657;51.128;5.938;2023-07-09T12:50:26;40.77;22.58
65876;HTU21D;52657;51.128;5.938;2023-07-09T12:52:56;40.71;23.01
65876;HTU21D;52657;51.128;5.938;2023-07-09T12:55:27;40.67;23.19
65876;HTU21D;52657;51.128;5.938;2023-07-09T12:58:00;40.58;23.45
65876;HTU21D;52657;51.128;5.938;2023-07-09T13:00:30;40.46;23.63
65876;HTU21D;52657;51.128;5.938;2023-07-09T13:02:59;40.38;23.91
65876;HTU21D;52657;51.128;5.938;2023-07-09T13:05:26;40.28;24.33
65876;HTU21D;52657;51.128;5.938;2023-07-09T13:08:00;40.09;24.78
65876;HTU21D;52657;51.128;5.938;2023-07-09T13:10:29;39.91;25.12
65876;HTU21D;52657;51.128;5.938;2023-07-09T13:13:01;39.73;25.22
65876;HTU21D;52657;51.128;5.938;2023-07-09T13:15:43;39.43;25.72
65876;HTU21D;52657;51.128;5.938;2023-07-09T13:18:14;39.20;26.04
65876;HTU21D;52657;51.128;5.938;2023-07-09T13:20:45;38.97;26.68
65876;HTU21D;52657;51.128;5.938;2023-07-09T13:23:25;38.63;27.54
65876;HTU21D;52657;51.128;5.938;2023-07-09T13:25:52;38.31;29.04
65876;HTU21D;52657;51.128;5.938;2023-07-09T13:28:27;37.91;31.28
65876;HTU21D;52657;51.128;5.938;2023-07-09T13:30:59;37.43;33.47
65876;HTU21D;52657;51.128;5.938;2023-07-09T13:33:25;37.04;36.22
65876;HTU21D;52657;51.128;5.938;2023-07-09T13:35:51;36.37;38.26
65876;HTU21D;52657;51.128;5.938;2023-07-09T13:38:22;35.75;40.75
65876;HTU21D;52657;51.128;5.938;2023-07-09T13:40:53;35.34;42.47
65876;HTU21D;52657;51.128;5.938;2023-07-09T13:43:29;35.00;44.05
65876;HTU21D;52657;51.128;5.938;2023-07-09T13:45:55;34.84;45.02
65876;HTU21D;52657;51.128;5.938;2023-07-09T13:48:25;34.38;45.53
65876;HTU21D;52657;51.128;5.938;2023-07-09T13:50:53;33.89;46.79
65876;HTU21D;52657;51.128;5.938;2023-07-09T13:53:23;33.58;46.81
65876;HTU21D;52657;51.128;5.938;2023-07-09T13:55:50;33.19;44.50
65876;HTU21D;52657;51.128;5.938;2023-07-09T13:58:19;32.60;43.72
65876;HTU21D;52657;51.128;5.938;2023-07-09T14:00:47;32.17;43.80
65876;HTU21D;52657;51.128;5.938;2023-07-09T14:03:26;31.70;44.74
65876;HTU21D;52657;51.128;5.938;2023-07-09T14:05:53;31.23;45.23
65876;HTU21D;52657;51.128;5.938;2023-07-09T14:08:21;30.94;45.85
65876;HTU21D;52657;51.128;5.938;2023-07-09T14:10:48;30.74;46.59
65876;HTU21D;52657;51.128;5.938;2023-07-09T14:13:20;30.78;46.83
65876;HTU21D;52657;51.128;5.938;2023-07-09T14:15:46;30.97;46.48
65876;HTU21D;52657;51.128;5.938;2023-07-09T14:18:17;31.02;46.41
65876;HTU21D;52657;51.128;5.938;2023-07-09T14:20:43;31.02;46.24
65876;HTU21D;52657;51.128;5.938;2023-07-09T14:23:14;31.08;46.57
65876;HTU21D;52657;51.128;5.938;2023-07-09T14:25:41;31.18;47.99
65876;HTU21D;52657;51.128;5.938;2023-07-09T14:28:14;31.24;47.76
65876;HTU21D;52657;51.128;5.938;2023-07-09T14:30:41;31.33;49.36
65876;HTU21D;52657;51.128;5.938;2023-07-09T14:33:18;31.43;50.05
65876;HTU21D;52657;51.128;5.938;2023-07-09T14:35:45;31.49;49.24
65876;HTU21D;52657;51.128;5.938;2023-07-09T14:38:23;31.38;49.87
65876;HTU21D;52657;51.128;5.938;2023-07-09T14:40:52;31.30;49.76
65876;HTU21D;52657;51.128;5.938;2023-07-09T14:43:18;31.25;50.14
65876;HTU21D;52657;51.128;5.938;2023-07-09T14:45:44;31.24;51.21
65876;HTU21D;52657;51.128;5.938;2023-07-09T14:48:12;31.11;52.23
65876;HTU21D;52657;51.128;5.938;2023-07-09T14:50:38;30.99;52.26
65876;HTU21D;52657;51.128;5.938;2023-07-09T14:53:15;30.84;53.09
65876;HTU21D;52657;51.128;5.938;2023-07-09T14:55:42;30.91;52.98
65876;HTU21D;52657;51.128;5.938;2023-07-09T14:58:19;31.09;53.68
65876;HTU21D;52657;51.128;5.938;2023-07-09T15:00:46;31.27;53.78
65876;HTU21D;52657;51.128;5.938;2023-07-09T15:03:24;31.33;53.31
65876;HTU21D;52657;51.128;5.938;2023-07-09T15:05:51;31.34;53.96
65876;HTU21D;52657;51.128;5.938;2023-07-09T15:08:20;31.35;53.62
65876;HTU21D;52657;51.128;5.938;2023-07-09T15:10:54;31.48;53.59
65876;HTU21D;52657;51.128;5.938;2023-07-09T15:13:31;31.55;53.18
65876;HTU21D;52657;51.128;5.938;2023-07-09T15:15:59;31.58;53.78
65876;HTU21D;52657;51.128;5.938;2023-07-09T15:18:25;31.72;53.45
65876;HTU21D;52657;51.128;5.938;2023-07-09T15:21:02;31.92;53.07
65876;HTU21D;52657;51.128;5.938;2023-07-09T15:23:29;32.02;52.11
65876;HTU21D;52657;51.128;5.938;2023-07-09T15:25:56;32.11;51.84
65876;HTU21D;52657;51.128;5.938;2023-07-09T15:28:23;32.16;51.28
65876;HTU21D;52657;51.128;5.938;2023-07-09T15:30:50;32.19;50.60
65876;HTU21D;52657;51.128;5.938;2023-07-09T15:33:19;32.24;50.12
65876;HTU21D;52657;51.128;5.938;2023-07-09T15:35:47;32.27;50.40
65876;HTU21D;52657;51.128;5.938;2023-07-09T15:38:25;32.27;50.64
65876;HTU21D;52657;51.128;5.938;2023-07-09T15:40:51;32.35;50.79
65876;HTU21D;52657;51.128;5.938;2023-07-09T15:43:17;32.48;49.59
65876;HTU21D;52657;51.128;5.938;2023-07-09T15:45:46;32.59;49.02
65876;HTU21D;52657;51.128;5.938;2023-07-09T15:48:35;32.54;48.89
65876;HTU21D;52657;51.128;5.938;2023-07-09T15:51:04;32.53;49.97
65876;HTU21D;52657;51.128;5.938;2023-07-09T15:53:31;32.69;49.92
65876;HTU21D;52657;51.128;5.938;2023-07-09T15:56:03;32.75;49.56
65876;HTU21D;52657;51.128;5.938;2023-07-09T15:58:43;32.72;49.68
65876;HTU21D;52657;51.128;5.938;2023-07-09T16:01:11;32.81;49.66
65876;HTU21D;52657;51.128;5.938;2023-07-09T16:03:37;32.89;49.97
65876;HTU21D;52657;51.128;5.938;2023-07-09T16:06:02;33.00;50.10
65876;HTU21D;52657;51.128;5.938;2023-07-09T16:08:28;32.96;49.82
65876;HTU21D;52657;51.128;5.938;2023-07-09T16:10:54;32.78;49.78
65876;HTU21D;52657;51.128;5.938;2023-07-09T16:13:23;32.44;50.72
65876;HTU21D;52657;51.128;5.938;2023-07-09T16:15:50;32.19;51.29